createdAt,value
2023-05-14T00:00:28.912Z,6.53
2023-05-14T00:02:55.930Z,6.60
2023-05-14T00:05:22.725Z,6.23
2023-05-14T00:07:49.320Z,6.67
2023-05-14T00:10:17.517Z,6.37
2023-05-14T00:12:43.998Z,6.47
2023-05-14T00:15:10.641Z,6.40
2023-05-14T00:17:38.022Z,6.97
2023-05-14T00:20:07.088Z,6.77
2023-05-14T00:22:34.089Z,6.57
2023-05-14T00:25:00.805Z,7.20
2023-05-14T00:27:27.489Z,6.63
2023-05-14T00:29:53.941Z,7.60
2023-05-14T00:32:20.707Z,6.87
2023-05-14T00:34:47.169Z,6.70
2023-05-14T00:37:13.872Z,6.80
2023-05-14T00:39:40.327Z,7.07
2023-05-14T00:42:07.160Z,6.80
2023-05-14T00:44:33.739Z,7.40
2023-05-14T00:47:00.783Z,6.40
2023-05-14T00:49:28.509Z,7.57
2023-05-14T00:51:55.760Z,6.90
2023-05-14T00:54:22.658Z,6.77
2023-05-14T00:56:50.821Z,7.93
2023-05-14T00:59:17.266Z,6.87
2023-05-14T01:01:43.867Z,7.70
2023-05-14T01:04:11.840Z,7.30
2023-05-14T01:06:53.153Z,6.60
2023-05-14T01:09:29.772Z,7.67
2023-05-14T01:12:10.054Z,7.20
2023-05-14T01:14:45.405Z,7.20
2023-05-14T01:17:15.135Z,6.30
2023-05-14T01:19:43.830Z,6.90
2023-05-14T01:22:12.063Z,7.80
2023-05-14T01:24:39.111Z,7.20
2023-05-14T01:27:14.709Z,7.27
2023-05-14T01:29:45.186Z,7.47
2023-05-14T01:32:13.616Z,7.60
2023-05-14T01:34:41.840Z,8.53
2023-05-14T01:37:11.383Z,7.90
2023-05-14T01:39:38.953Z,7.47
2023-05-14T01:42:07.225Z,7.03
2023-05-14T01:44:34.455Z,9.67
2023-05-14T01:47:01.441Z,8.17
2023-05-14T01:49:27.901Z,8.67
2023-05-14T01:51:54.469Z,7.67
2023-05-14T01:54:21.186Z,8.07
2023-05-14T01:56:47.607Z,8.17
2023-05-14T01:59:14.144Z,7.77
2023-05-14T02:01:40.707Z,7.63
2023-05-14T02:04:07.533Z,7.80
2023-05-14T02:06:34.093Z,8.57
2023-05-14T02:09:00.651Z,8.27
2023-05-14T02:11:27.085Z,8.07
2023-05-14T02:13:53.774Z,7.50
2023-05-14T02:16:20.268Z,9.07
2023-05-14T02:18:46.785Z,6.63
2023-05-14T02:21:13.268Z,7.27
2023-05-14T02:23:41.948Z,6.80
2023-05-14T02:26:10.292Z,6.60
2023-05-14T02:28:36.822Z,6.10
2023-05-14T02:31:03.725Z,6.73
2023-05-14T02:33:30.264Z,6.53
2023-05-14T02:35:56.756Z,6.10
2023-05-14T02:38:23.526Z,5.60
2023-05-14T02:40:50.087Z,6.87
2023-05-14T02:43:16.521Z,6.50
2023-05-14T02:45:43.063Z,7.13
2023-05-14T02:48:09.498Z,7.90
2023-05-14T02:50:36.076Z,7.00
2023-05-14T02:53:02.588Z,7.30
2023-05-14T02:55:29.178Z,7.40
2023-05-14T02:57:56.725Z,8.30
2023-05-14T03:00:23.800Z,8.20
2023-05-14T03:02:50.916Z,7.80
2023-05-14T03:05:17.942Z,7.60
2023-05-14T03:07:44.469Z,8.50
2023-05-14T03:10:11.216Z,8.10
2023-05-14T03:12:37.701Z,8.10
2023-05-14T03:15:04.420Z,8.50
2023-05-14T03:17:30.872Z,8.70
2023-05-14T03:19:57.384Z,9.30
2023-05-14T03:22:23.840Z,7.60
2023-05-14T03:24:50.284Z,8.43
2023-05-14T03:27:16.716Z,8.07
2023-05-14T03:29:43.382Z,9.30
2023-05-14T03:32:09.968Z,7.87
2023-05-14T03:34:36.888Z,11.50
2023-05-14T03:37:03.503Z,8.60
2023-05-14T03:39:30.284Z,8.80
2023-05-14T03:41:58.841Z,7.93
2023-05-14T03:44:25.479Z,8.73
2023-05-14T03:46:52.365Z,8.70
2023-05-14T03:49:19.164Z,8.60
2023-05-14T03:51:45.680Z,9.10
2023-05-14T03:54:12.115Z,9.13
2023-05-14T03:56:38.565Z,8.43
2023-05-14T03:59:05.324Z,8.87
2023-05-14T04:01:32.312Z,9.53
2023-05-14T04:03:58.965Z,9.40
2023-05-14T04:06:26.102Z,8.30
2023-05-14T04:08:52.540Z,9.20
2023-05-14T04:11:18.976Z,8.60
2023-05-14T04:13:45.565Z,8.70
2023-05-14T04:16:11.992Z,8.53
2023-05-14T04:18:38.778Z,9.07
2023-05-14T04:21:05.402Z,8.90
2023-05-14T04:23:31.967Z,8.63
2023-05-14T04:25:58.946Z,8.87
2023-05-14T04:28:25.789Z,8.00
2023-05-14T04:30:52.428Z,7.70
2023-05-14T04:33:19.017Z,7.13
2023-05-14T04:35:46.126Z,6.57
2023-05-14T04:38:14.177Z,6.70
2023-05-14T04:40:41.490Z,6.90
2023-05-14T04:43:08.211Z,6.97
2023-05-14T04:45:34.819Z,6.10
2023-05-14T04:48:02.272Z,6.93
2023-05-14T04:50:28.702Z,5.83
2023-05-14T04:52:55.953Z,6.47
2023-05-14T04:55:22.907Z,6.70
2023-05-14T04:57:49.345Z,6.53
2023-05-14T05:00:17.315Z,6.90
2023-05-14T05:02:43.953Z,6.57
2023-05-14T05:05:10.661Z,6.37
2023-05-14T05:07:37.079Z,5.50
2023-05-14T05:10:03.849Z,6.50
2023-05-14T05:12:30.460Z,6.53
2023-05-14T05:14:57.769Z,6.60
2023-05-14T05:17:25.155Z,5.90
2023-05-14T05:19:51.712Z,6.03
2023-05-14T05:22:20.339Z,5.53
2023-05-14T05:24:47.994Z,6.17
2023-05-14T05:27:15.854Z,5.33
2023-05-14T05:29:42.298Z,5.70
2023-05-14T05:32:09.029Z,5.40
2023-05-14T05:34:36.323Z,6.20
2023-05-14T05:37:03.207Z,6.23
2023-05-14T05:39:34.568Z,5.77
2023-05-14T05:42:04.743Z,5.60
2023-05-14T05:44:31.199Z,5.70
2023-05-14T05:46:57.835Z,5.50
2023-05-14T05:49:24.529Z,5.23
2023-05-14T05:51:51.210Z,5.53
2023-05-14T05:54:17.748Z,5.67
2023-05-14T05:56:44.297Z,5.67
2023-05-14T05:59:10.732Z,5.90
2023-05-14T06:01:37.409Z,5.30
2023-05-14T06:04:06.127Z,4.90
2023-05-14T06:06:33.046Z,5.50
2023-05-14T06:08:59.505Z,4.93
2023-05-14T06:11:26.710Z,6.07
2023-05-14T06:13:53.444Z,6.60
2023-05-14T06:16:20.158Z,5.50
2023-05-14T06:18:47.042Z,5.93
2023-05-14T06:21:13.625Z,5.63
2023-05-14T06:23:40.996Z,5.90
2023-05-14T06:26:07.605Z,5.67
2023-05-14T06:28:34.043Z,5.93
2023-05-14T06:31:00.785Z,6.20
2023-05-14T06:33:30.955Z,4.90
2023-05-14T06:36:02.650Z,6.33
2023-05-14T06:38:29.100Z,5.70
2023-05-14T06:40:55.667Z,5.43
2023-05-14T06:43:22.270Z,5.30
2023-05-14T06:45:49.924Z,4.97
2023-05-14T06:48:18.780Z,4.80
2023-05-14T06:50:46.556Z,4.73
2023-05-14T06:53:13.135Z,4.50
2023-05-14T06:55:40.190Z,4.90
2023-05-14T06:58:07.890Z,5.10
2023-05-14T07:00:34.666Z,5.13
2023-05-14T07:03:01.178Z,4.50
2023-05-14T07:05:27.863Z,3.97
2023-05-14T07:07:54.320Z,4.43
2023-05-14T07:10:20.882Z,4.10
2023-05-14T07:12:47.783Z,4.00
2023-05-14T07:15:14.347Z,4.63
2023-05-14T07:17:41.274Z,4.57
2023-05-14T07:20:08.213Z,4.80
2023-05-14T07:22:34.770Z,4.67
2023-05-14T07:25:01.297Z,4.77
2023-05-14T07:27:27.827Z,3.93
2023-05-14T07:29:54.374Z,4.23
2023-05-14T07:32:21.002Z,3.60
2023-05-14T07:34:47.487Z,3.93
2023-05-14T07:37:13.990Z,3.87
2023-05-14T07:39:41.630Z,3.60
2023-05-14T07:42:08.126Z,3.73
2023-05-14T07:44:34.546Z,3.50
2023-05-14T07:47:01.176Z,3.87
2023-05-14T07:49:27.693Z,3.97
2023-05-14T07:51:54.258Z,4.17
2023-05-14T07:54:20.795Z,3.83
2023-05-14T07:56:47.355Z,3.97
2023-05-14T07:59:13.789Z,3.57
2023-05-14T08:01:40.680Z,3.53
2023-05-14T08:04:07.541Z,3.80
2023-05-14T08:06:34.304Z,3.63
2023-05-14T08:09:00.738Z,4.33
2023-05-14T08:11:27.333Z,3.37
2023-05-14T08:13:53.757Z,3.47
2023-05-14T08:16:20.352Z,3.90
2023-05-14T08:18:47.060Z,3.57
2023-05-14T08:21:13.699Z,3.40
2023-05-14T08:23:40.339Z,3.87
2023-05-14T08:26:07.199Z,3.63
2023-05-14T08:28:33.567Z,3.47
2023-05-14T08:31:00.415Z,3.77
2023-05-14T08:33:26.883Z,4.23
2023-05-14T08:35:53.994Z,3.53
2023-05-14T08:38:20.614Z,3.70
2023-05-14T08:41:06.445Z,3.20
2023-05-14T08:43:50.405Z,4.00
2023-05-14T08:46:18.061Z,3.60
2023-05-14T08:48:48.973Z,3.97
2023-05-14T08:51:15.531Z,3.60
2023-05-14T08:53:42.058Z,3.90
2023-05-14T08:56:09.403Z,3.60
2023-05-14T08:58:35.839Z,3.77
2023-05-14T09:01:02.533Z,3.80
2023-05-14T09:03:30.096Z,3.60
2023-05-14T09:05:59.991Z,3.73
2023-05-14T09:08:26.751Z,3.23
2023-05-14T09:10:53.235Z,2.97
2023-05-14T09:13:19.629Z,3.50
2023-05-14T09:15:48.324Z,3.60
2023-05-14T09:18:14.779Z,3.93
2023-05-14T09:20:41.587Z,3.60
2023-05-14T09:23:07.985Z,3.70
2023-05-14T09:25:34.459Z,3.50
2023-05-14T09:28:05.943Z,3.57
2023-05-14T09:30:34.118Z,3.30
2023-05-14T09:33:00.735Z,3.53
2023-05-14T09:35:27.320Z,3.50
2023-05-14T09:37:55.367Z,3.83
2023-05-14T09:40:24.374Z,3.20
2023-05-14T09:42:51.454Z,3.30
2023-05-14T09:45:18.140Z,3.87
2023-05-14T09:47:45.115Z,4.13
2023-05-14T09:50:12.354Z,3.33
2023-05-14T09:52:39.405Z,3.53
2023-05-14T09:55:06.581Z,3.50
2023-05-14T09:57:33.594Z,3.60
2023-05-14T10:00:00.386Z,3.63
2023-05-14T10:02:36.779Z,3.40
2023-05-14T10:05:06.380Z,3.63
2023-05-14T10:07:42.375Z,3.40
2023-05-14T10:10:13.016Z,3.40
2023-05-14T10:12:40.572Z,3.53
2023-05-14T10:15:15.394Z,3.47
2023-05-14T10:17:47.512Z,3.53
2023-05-14T10:20:15.622Z,3.63
2023-05-14T10:22:42.129Z,3.53
2023-05-14T10:25:09.574Z,3.43
2023-05-14T10:27:36.501Z,3.30
2023-05-14T10:30:06.402Z,3.17
2023-05-14T10:32:33.128Z,3.37
2023-05-14T10:35:01.633Z,3.90
2023-05-14T10:37:29.979Z,3.50
2023-05-14T10:40:02.523Z,3.40
2023-05-14T10:42:35.740Z,3.67
2023-05-14T10:45:07.244Z,3.67
2023-05-14T10:47:38.686Z,3.50
2023-05-14T10:50:08.004Z,3.70
2023-05-14T10:52:35.396Z,4.13
2023-05-14T10:55:04.210Z,3.50
2023-05-14T10:57:32.089Z,3.30
2023-05-14T11:00:00.288Z,3.50
2023-05-14T11:02:29.360Z,3.60
2023-05-14T11:04:59.341Z,3.90
2023-05-14T11:07:45.906Z,3.97
2023-05-14T11:10:14.230Z,3.77
2023-05-14T11:12:43.087Z,3.67
2023-05-14T11:15:17.763Z,3.43
2023-05-14T11:17:45.453Z,3.77
2023-05-14T11:20:12.728Z,3.73
2023-05-14T11:22:40.994Z,3.80
2023-05-14T11:25:08.665Z,3.40
2023-05-14T11:27:36.634Z,3.30
2023-05-14T11:30:04.273Z,3.60
2023-05-14T11:32:33.923Z,4.00
2023-05-14T11:35:00.564Z,3.70
2023-05-14T11:37:27.020Z,3.80
2023-05-14T11:39:55.667Z,3.57
2023-05-14T11:42:22.504Z,3.70
2023-05-14T11:44:51.581Z,3.53
2023-05-14T11:47:19.630Z,3.63
2023-05-14T11:49:46.620Z,3.70
2023-05-14T11:52:15.335Z,3.57
2023-05-14T11:54:44.099Z,2.93
2023-05-14T11:57:19.439Z,2.80
2023-05-14T11:59:48.110Z,2.70
2023-05-14T12:02:17.584Z,2.50
2023-05-14T12:04:49.210Z,2.80
2023-05-14T12:07:16.385Z,3.33
2023-05-14T12:09:49.090Z,3.27
2023-05-14T12:12:19.077Z,3.30
2023-05-14T12:14:46.663Z,2.90
2023-05-14T12:17:18.031Z,3.60
2023-05-14T12:19:45.952Z,3.40
2023-05-14T12:22:15.459Z,3.20
2023-05-14T12:24:43.622Z,3.60
2023-05-14T12:27:10.694Z,3.30
2023-05-14T12:29:41.160Z,3.30
2023-05-14T12:32:10.059Z,3.43
2023-05-14T12:34:37.980Z,3.60
2023-05-14T12:37:05.803Z,3.60
2023-05-14T12:39:33.734Z,3.23
2023-05-14T12:42:00.449Z,3.63
2023-05-14T12:44:26.972Z,3.30
2023-05-14T12:46:54.013Z,3.57
2023-05-14T12:49:20.534Z,3.50
2023-05-14T12:51:47.151Z,3.43
2023-05-14T12:54:15.792Z,4.00
2023-05-14T12:56:42.657Z,3.93
2023-05-14T12:59:09.539Z,3.90
2023-05-14T13:01:37.625Z,3.67
2023-05-14T13:04:05.421Z,4.17
2023-05-14T13:06:32.637Z,3.37
2023-05-14T13:09:01.652Z,3.70
2023-05-14T13:11:30.335Z,3.70
2023-05-14T13:13:56.830Z,3.80
2023-05-14T13:16:23.477Z,3.37
2023-05-14T13:18:50.042Z,3.73
2023-05-14T13:21:16.569Z,3.13
2023-05-14T13:23:42.972Z,3.83
2023-05-14T13:26:09.812Z,3.50
2023-05-14T13:28:36.200Z,4.00
2023-05-14T13:31:11.828Z,3.50
2023-05-14T13:33:43.300Z,3.67
2023-05-14T13:36:11.770Z,3.70
2023-05-14T13:38:38.356Z,3.60
2023-05-14T13:41:05.750Z,3.90
2023-05-14T13:43:34.316Z,3.73
2023-05-14T13:46:01.548Z,4.10
2023-05-14T13:48:28.087Z,3.70
2023-05-14T13:50:55.105Z,3.67
2023-05-14T13:53:23.051Z,3.33
2023-05-14T13:55:50.614Z,3.27
2023-05-14T13:58:17.252Z,3.70
2023-05-14T14:00:43.812Z,3.87
2023-05-14T14:03:10.372Z,3.43
2023-05-14T14:05:37.059Z,3.47
2023-05-14T14:08:17.801Z,3.77
2023-05-14T14:10:49.958Z,3.80
2023-05-14T14:13:16.478Z,3.13
2023-05-14T14:15:43.712Z,3.77
2023-05-14T14:18:10.252Z,3.70
2023-05-14T14:20:37.027Z,3.60
2023-05-14T14:23:03.430Z,4.90
2023-05-14T14:25:31.064Z,3.60
2023-05-14T14:27:57.498Z,3.70
2023-05-14T14:30:24.231Z,3.70
2023-05-14T14:32:50.853Z,3.67
2023-05-14T14:35:19.007Z,3.83
2023-05-14T14:37:49.115Z,3.73
2023-05-14T14:40:16.719Z,3.57
2023-05-14T14:42:43.742Z,5.70
2023-05-14T14:45:11.289Z,5.93
2023-05-14T14:47:37.735Z,4.70
2023-05-14T14:50:05.010Z,3.60
2023-05-14T14:52:31.430Z,3.50
2023-05-14T14:54:58.197Z,3.73
2023-05-14T14:57:24.711Z,4.13
2023-05-14T14:59:51.279Z,3.80
2023-05-14T15:02:17.710Z,3.47
2023-05-14T15:04:44.377Z,3.43
2023-05-14T15:07:11.117Z,3.57
2023-05-14T15:09:37.621Z,3.87
2023-05-14T15:12:04.410Z,3.87
2023-05-14T15:14:31.016Z,3.40
2023-05-14T15:16:57.492Z,3.90
2023-05-14T15:19:23.999Z,3.67
2023-05-14T15:21:50.478Z,3.70
2023-05-14T15:24:16.958Z,4.00
2023-05-14T15:26:43.384Z,3.50
2023-05-14T15:29:09.912Z,3.60
2023-05-14T15:31:36.482Z,3.50
2023-05-14T15:34:03.670Z,3.40
2023-05-14T15:36:30.776Z,3.40
2023-05-14T15:38:57.268Z,3.90
2023-05-14T15:41:25.422Z,4.10
2023-05-14T15:43:52.028Z,3.63
2023-05-14T15:46:18.537Z,3.83
2023-05-14T15:48:45.511Z,3.97
2023-05-14T15:51:12.590Z,3.60
2023-05-14T15:53:39.363Z,3.93
2023-05-14T15:56:06.125Z,3.80
2023-05-14T15:58:32.581Z,4.17
2023-05-14T16:00:59.016Z,3.70
2023-05-14T16:03:25.776Z,3.20
2023-05-14T16:05:52.385Z,4.10
2023-05-14T16:08:18.891Z,4.00
2023-05-14T16:10:45.389Z,3.50
2023-05-14T16:13:11.973Z,3.30
2023-05-14T16:15:39.739Z,3.40
2023-05-14T16:18:06.423Z,3.70
2023-05-14T16:20:32.833Z,3.70
2023-05-14T16:22:59.512Z,4.57
2023-05-14T16:25:26.103Z,3.30
2023-05-14T16:27:52.637Z,4.80
2023-05-14T16:30:19.039Z,3.97
2023-05-14T16:32:49.327Z,3.83
2023-05-14T16:35:16.752Z,3.50
2023-05-14T16:37:43.408Z,4.23
2023-05-14T16:40:11.713Z,4.33
2023-05-14T16:42:38.749Z,3.90
2023-05-14T16:45:05.566Z,4.20
2023-05-14T16:47:32.057Z,3.90
2023-05-14T16:49:58.751Z,3.80
2023-05-14T16:52:25.151Z,3.77
2023-05-14T16:54:51.710Z,3.60
2023-05-14T16:57:18.200Z,3.57
2023-05-14T16:59:44.861Z,3.30
2023-05-14T17:02:11.276Z,3.63
2023-05-14T17:04:41.825Z,4.07
2023-05-14T17:07:08.400Z,3.97
2023-05-14T17:09:35.153Z,3.60
2023-05-14T17:12:01.610Z,4.00
2023-05-14T17:14:28.082Z,3.93
2023-05-14T17:16:54.744Z,4.20
2023-05-14T17:19:21.442Z,4.20
2023-05-14T17:21:47.831Z,3.50
2023-05-14T17:24:14.271Z,3.90
2023-05-14T17:26:40.696Z,3.63
2023-05-14T17:29:07.371Z,4.20
2023-05-14T17:31:34.351Z,3.63
2023-05-14T17:34:00.982Z,3.80
2023-05-14T17:36:28.496Z,3.80
2023-05-14T17:38:55.316Z,3.90
2023-05-14T17:41:21.741Z,3.50
2023-05-14T17:43:48.328Z,3.97
2023-05-14T17:46:14.775Z,3.70
2023-05-14T17:48:41.415Z,3.77
2023-05-14T17:51:07.831Z,3.93
2023-05-14T17:53:34.292Z,3.47
2023-05-14T17:56:00.864Z,3.77
2023-05-14T17:58:27.636Z,3.80
2023-05-14T18:00:54.099Z,4.13
2023-05-14T18:03:20.701Z,3.70
2023-05-14T18:05:47.382Z,3.70
2023-05-14T18:08:14.905Z,3.43
2023-05-14T18:10:41.327Z,4.37
2023-05-14T18:13:07.807Z,4.27
2023-05-14T18:15:36.134Z,3.57
2023-05-14T18:18:02.970Z,3.97
2023-05-14T18:20:29.388Z,4.37
2023-05-14T18:22:55.828Z,3.73
2023-05-14T18:25:22.352Z,3.33
2023-05-14T18:27:49.148Z,4.30
2023-05-14T18:30:15.878Z,3.60
2023-05-14T18:32:44.308Z,3.57
2023-05-14T18:35:12.223Z,4.40
2023-05-14T18:37:38.750Z,4.10
2023-05-14T18:40:06.940Z,4.00
2023-05-14T18:42:34.049Z,4.07
2023-05-14T18:45:00.782Z,3.60
2023-05-14T18:47:27.456Z,3.40
2023-05-14T18:49:55.822Z,3.80
2023-05-14T18:52:22.796Z,3.73
2023-05-14T18:54:50.873Z,3.90
2023-05-14T18:57:17.570Z,4.37
2023-05-14T18:59:44.001Z,3.80
2023-05-14T19:02:10.800Z,4.17
2023-05-14T19:04:50.621Z,4.00
2023-05-14T19:07:18.087Z,3.57
2023-05-14T19:09:44.490Z,3.83
2023-05-14T19:12:10.948Z,3.90
2023-05-14T19:14:37.556Z,4.40
2023-05-14T19:17:04.653Z,4.50
2023-05-14T19:19:31.357Z,4.47
2023-05-14T19:21:57.744Z,4.20
2023-05-14T19:24:24.703Z,3.83
2023-05-14T19:26:51.251Z,4.57
2023-05-14T19:29:17.713Z,4.20
2023-05-14T19:31:44.200Z,4.43
2023-05-14T19:34:10.904Z,4.10
2023-05-14T19:36:37.340Z,3.87
2023-05-14T19:39:04.116Z,4.20
2023-05-14T19:41:30.653Z,4.03
2023-05-14T19:43:57.115Z,4.50
2023-05-14T19:46:23.635Z,3.97
2023-05-14T19:48:50.321Z,4.40
2023-05-14T19:51:16.921Z,4.30
2023-05-14T19:53:43.551Z,4.40
2023-05-14T19:56:10.061Z,3.90
2023-05-14T19:58:36.662Z,4.30
2023-05-14T20:01:03.202Z,4.47
2023-05-14T20:03:30.079Z,3.90
2023-05-14T20:05:56.665Z,4.20
2023-05-14T20:08:23.176Z,4.80
2023-05-14T20:10:49.814Z,4.57
2023-05-14T20:13:16.307Z,4.20
2023-05-14T20:15:43.168Z,4.70
2023-05-14T20:18:09.715Z,4.40
2023-05-14T20:20:36.717Z,3.97
2023-05-14T20:23:03.538Z,4.47
2023-05-14T20:25:30.283Z,4.70
2023-05-14T20:27:56.954Z,5.07
2023-05-14T20:30:23.974Z,4.43
2023-05-14T20:32:51.216Z,5.10
2023-05-14T20:35:17.969Z,5.10
2023-05-14T20:37:44.569Z,5.17
2023-05-14T20:40:14.041Z,4.97
2023-05-14T20:42:40.623Z,4.80
2023-05-14T20:45:07.739Z,5.33
2023-05-14T20:47:35.608Z,4.70
2023-05-14T20:50:02.264Z,4.70
2023-05-14T20:52:28.806Z,4.63
2023-05-14T20:54:55.430Z,4.33
2023-05-14T20:57:22.667Z,5.10
2023-05-14T20:59:49.138Z,5.23
2023-05-14T21:02:15.799Z,5.23
2023-05-14T21:04:42.849Z,5.40
2023-05-14T21:07:09.428Z,5.20
2023-05-14T21:09:35.837Z,5.37
2023-05-14T21:12:02.270Z,5.77
2023-05-14T21:14:28.726Z,5.20
2023-05-14T21:16:55.376Z,4.83
2023-05-14T21:19:22.848Z,5.60
2023-05-14T21:21:49.449Z,5.13
2023-05-14T21:24:16.750Z,5.40
2023-05-14T21:26:43.640Z,5.43
2023-05-14T21:29:10.981Z,5.70
2023-05-14T21:31:37.480Z,6.03
2023-05-14T21:34:03.940Z,5.07
2023-05-14T21:36:31.166Z,6.87
2023-05-14T21:38:57.585Z,5.83
2023-05-14T21:41:24.044Z,5.50
2023-05-14T21:43:50.554Z,6.37
2023-05-14T21:46:17.027Z,6.23
2023-05-14T21:48:43.598Z,5.80
2023-05-14T21:51:11.321Z,5.53
2023-05-14T21:53:37.737Z,4.70
2023-05-14T21:56:04.668Z,6.00
2023-05-14T21:58:31.090Z,6.30
2023-05-14T22:00:57.922Z,5.90
2023-05-14T22:03:24.520Z,6.37
2023-05-14T22:05:51.663Z,6.10
2023-05-14T22:08:18.080Z,5.73
2023-05-14T22:10:45.375Z,6.50
2023-05-14T22:13:11.773Z,6.03
2023-05-14T22:15:38.461Z,5.97
2023-05-14T22:18:04.974Z,6.97
2023-05-14T22:20:31.556Z,5.90
2023-05-14T22:22:58.103Z,6.40
2023-05-14T22:25:24.985Z,6.70
2023-05-14T22:27:51.682Z,6.23
2023-05-14T22:30:18.310Z,6.60
2023-05-14T22:32:44.824Z,6.60
2023-05-14T22:35:11.616Z,6.70
2023-05-14T22:37:38.140Z,6.80
2023-05-14T22:40:08.548Z,6.73
2023-05-14T22:42:34.969Z,6.87
2023-05-14T22:45:01.635Z,8.00
2023-05-14T22:47:28.111Z,6.90
2023-05-14T22:49:54.698Z,6.57
2023-05-14T22:52:21.110Z,6.70
2023-05-14T22:54:50.836Z,7.17
2023-05-14T22:57:17.804Z,7.57
2023-05-14T22:59:44.268Z,7.30
2023-05-14T23:02:10.930Z,6.70
2023-05-14T23:04:37.514Z,6.87
2023-05-14T23:07:04.172Z,6.90
2023-05-14T23:09:30.787Z,6.40
2023-05-14T23:11:57.235Z,6.77
2023-05-14T23:14:23.908Z,6.70
2023-05-14T23:16:50.423Z,7.37
2023-05-14T23:19:17.285Z,7.20
2023-05-14T23:21:43.822Z,6.77
2023-05-14T23:24:10.374Z,6.77
2023-05-14T23:26:36.954Z,6.70
2023-05-14T23:29:03.515Z,6.50
2023-05-14T23:31:30.295Z,7.27
2023-05-14T23:33:56.975Z,7.50
2023-05-14T23:36:23.572Z,7.37
2023-05-14T23:38:50.232Z,7.17
2023-05-14T23:41:16.731Z,7.60
2023-05-14T23:43:43.134Z,6.60
2023-05-14T23:46:10.325Z,6.70
2023-05-14T23:48:37.002Z,6.77
2023-05-14T23:51:03.907Z,6.93
2023-05-14T23:53:30.318Z,7.93
2023-05-14T23:55:57.049Z,7.50
2023-05-14T23:58:23.790Z,6.60
